createdAt,value
2022-11-17T00:01:14.873Z,3.50
2022-11-17T00:03:41.160Z,4.18
2022-11-17T00:06:07.478Z,3.97
2022-11-17T00:08:33.786Z,4.07
2022-11-17T00:11:00.862Z,3.97
2022-11-17T00:13:45.658Z,3.80
2022-11-17T00:16:12.929Z,3.33
2022-11-17T00:18:58.347Z,4.53
2022-11-17T00:21:26.951Z,3.92
2022-11-17T00:23:56.131Z,3.83
2022-11-17T00:26:23.770Z,4.93
2022-11-17T00:28:54.419Z,4.20
2022-11-17T00:31:39.653Z,5.55
2022-11-17T00:34:06.373Z,5.30
2022-11-17T00:36:38.346Z,5.50
2022-11-17T00:39:05.389Z,5.63
2022-11-17T00:41:31.799Z,5.22
2022-11-17T00:43:58.123Z,5.80
2022-11-17T00:46:24.706Z,5.95
2022-11-17T00:48:51.127Z,5.32
2022-11-17T00:51:17.883Z,5.95
2022-11-17T00:53:44.250Z,6.00
2022-11-17T00:56:10.633Z,5.35
2022-11-17T00:58:36.986Z,5.13
2022-11-17T01:01:04.146Z,5.38
2022-11-17T01:03:30.861Z,5.05
2022-11-17T01:06:03.106Z,5.32
2022-11-17T01:08:29.682Z,4.95
2022-11-17T01:10:56.117Z,4.82
2022-11-17T01:13:22.495Z,4.78
2022-11-17T01:15:48.786Z,5.45
2022-11-17T01:18:15.087Z,4.90
2022-11-17T01:20:41.681Z,4.95
2022-11-17T01:23:07.980Z,4.60
2022-11-17T01:25:34.308Z,4.80
2022-11-17T01:28:00.615Z,4.40
2022-11-17T01:30:26.979Z,4.60
2022-11-17T01:32:53.545Z,4.78
2022-11-17T01:35:19.922Z,4.47
2022-11-17T01:37:46.241Z,4.10
2022-11-17T01:40:13.312Z,4.38
2022-11-17T01:42:39.869Z,3.65
2022-11-17T01:45:22.976Z,3.40
2022-11-17T01:47:51.292Z,3.15
2022-11-17T01:50:29.912Z,3.33
2022-11-17T01:52:59.577Z,3.75
2022-11-17T01:55:28.430Z,4.00
2022-11-17T01:57:58.154Z,4.50
2022-11-17T02:00:24.564Z,4.20
2022-11-17T02:02:51.454Z,3.78
2022-11-17T02:05:30.282Z,3.10
2022-11-17T02:07:59.486Z,3.65
2022-11-17T02:10:26.184Z,3.75
2022-11-17T02:12:54.489Z,3.67
2022-11-17T02:15:20.903Z,3.53
2022-11-17T02:17:47.256Z,3.20
2022-11-17T02:20:17.306Z,3.20
2022-11-17T02:23:02.093Z,2.90
2022-11-17T02:25:34.562Z,2.85
2022-11-17T02:28:15.299Z,2.78
2022-11-17T02:30:44.754Z,2.58
2022-11-17T02:33:23.405Z,2.60
2022-11-17T02:36:08.326Z,3.63
2022-11-17T02:38:34.669Z,2.80
2022-11-17T02:41:08.239Z,2.75
2022-11-17T02:43:57.097Z,2.88
2022-11-17T02:46:24.578Z,2.53
2022-11-17T02:49:03.681Z,2.90
2022-11-17T02:51:31.021Z,2.97
2022-11-17T02:53:57.594Z,2.88
2022-11-17T02:56:23.878Z,2.80
2022-11-17T02:58:51.501Z,2.88
2022-11-17T03:01:36.511Z,3.00
2022-11-17T03:04:02.815Z,3.58
2022-11-17T03:06:41.232Z,2.88
2022-11-17T03:09:15.708Z,2.95
2022-11-17T03:11:48.042Z,3.00
2022-11-17T03:14:25.359Z,2.55
2022-11-17T03:16:57.344Z,2.75
2022-11-17T03:19:28.644Z,2.80
2022-11-17T03:22:07.641Z,2.50
2022-11-17T03:24:37.015Z,2.53
2022-11-17T03:27:05.926Z,2.80
2022-11-17T03:29:33.396Z,2.40
2022-11-17T03:32:01.881Z,2.47
2022-11-17T03:34:29.944Z,2.60
2022-11-17T03:37:00.780Z,2.42
2022-11-17T03:39:32.228Z,2.10
2022-11-17T03:42:16.397Z,2.10
2022-11-17T03:44:45.575Z,2.20
2022-11-17T03:47:13.097Z,2.90
2022-11-17T03:49:39.349Z,2.63
2022-11-17T03:52:05.868Z,2.38
2022-11-17T03:54:32.653Z,2.40
2022-11-17T03:57:01.947Z,2.40
2022-11-17T03:59:36.330Z,2.88
2022-11-17T04:02:02.769Z,2.33
2022-11-17T04:04:49.370Z,2.30
2022-11-17T04:07:15.841Z,2.47
2022-11-17T04:09:42.364Z,2.40
2022-11-17T04:12:27.546Z,2.63
2022-11-17T04:15:12.621Z,2.60
2022-11-17T04:17:39.222Z,2.60
2022-11-17T04:20:05.834Z,2.60
2022-11-17T04:22:32.210Z,2.50
2022-11-17T04:24:58.489Z,2.60
2022-11-17T04:27:43.508Z,2.13
2022-11-17T04:30:10.165Z,2.38
2022-11-17T04:32:36.477Z,2.25
2022-11-17T04:35:02.781Z,2.50
2022-11-17T04:37:29.083Z,2.10
2022-11-17T04:39:55.459Z,2.20
2022-11-17T04:42:21.818Z,2.30
2022-11-17T04:44:48.496Z,2.13
2022-11-17T04:47:14.853Z,1.92
2022-11-17T04:49:41.226Z,2.00
2022-11-17T04:52:07.664Z,2.40
2022-11-17T04:54:34.007Z,2.20
2022-11-17T04:57:00.306Z,2.13
2022-11-17T04:59:26.587Z,2.30
2022-11-17T05:01:53.035Z,2.22
2022-11-17T05:04:38.935Z,2.30
2022-11-17T05:07:05.738Z,2.47
2022-11-17T05:09:32.583Z,1.88
2022-11-17T05:12:17.268Z,2.33
2022-11-17T05:14:43.644Z,2.30
2022-11-17T05:17:11.566Z,2.40
2022-11-17T05:19:42.186Z,2.05
2022-11-17T05:22:27.255Z,2.47
2022-11-17T05:24:54.274Z,2.47
2022-11-17T05:27:21.309Z,2.10
2022-11-17T05:29:47.730Z,2.00
2022-11-17T05:32:15.455Z,2.03
2022-11-17T05:34:41.843Z,2.40
2022-11-17T05:37:08.119Z,2.45
2022-11-17T05:39:34.642Z,2.47
2022-11-17T05:42:01.025Z,2.22
2022-11-17T05:44:27.328Z,3.08
2022-11-17T05:46:53.631Z,2.60
2022-11-17T05:49:19.923Z,2.95
2022-11-17T05:51:51.313Z,2.40
2022-11-17T05:54:18.972Z,3.00
2022-11-17T05:57:05.639Z,2.80
2022-11-17T05:59:34.237Z,2.75
2022-11-17T06:02:03.014Z,3.08
2022-11-17T06:04:29.371Z,2.95
2022-11-17T06:06:59.335Z,3.20
2022-11-17T06:09:26.962Z,3.20
2022-11-17T06:11:53.433Z,3.20
2022-11-17T06:14:20.063Z,3.70
2022-11-17T06:16:48.091Z,2.90
2022-11-17T06:19:22.231Z,2.72
2022-11-17T06:22:11.267Z,2.65
2022-11-17T06:24:36.840Z,2.20
2022-11-17T06:27:04.070Z,2.55
2022-11-17T06:29:30.469Z,2.45
2022-11-17T06:31:57.996Z,1.95
2022-11-17T06:34:25.240Z,2.78
2022-11-17T06:36:53.402Z,1.77
2022-11-17T06:39:19.699Z,2.05
2022-11-17T06:41:46.041Z,1.80
2022-11-17T06:44:12.397Z,2.78
2022-11-17T06:46:38.996Z,2.20
2022-11-17T06:49:06.649Z,2.58
2022-11-17T06:51:34.046Z,2.38
2022-11-17T06:54:00.664Z,2.63
2022-11-17T06:56:27.614Z,2.80
2022-11-17T06:58:53.980Z,2.25
2022-11-17T07:01:20.459Z,2.70
2022-11-17T07:03:46.884Z,2.72
2022-11-17T07:06:13.590Z,3.10
2022-11-17T07:08:40.004Z,3.70
2022-11-17T07:11:12.141Z,2.22
2022-11-17T07:13:38.604Z,2.00
2022-11-17T07:16:20.122Z,2.35
2022-11-17T07:18:49.988Z,2.20
2022-11-17T07:21:16.497Z,2.22
2022-11-17T07:23:44.736Z,2.15
2022-11-17T07:26:11.442Z,2.05
2022-11-17T07:28:38.211Z,2.13
2022-11-17T07:31:05.609Z,2.00
2022-11-17T07:33:32.244Z,1.92
2022-11-17T07:36:05.593Z,2.28
2022-11-17T07:38:32.895Z,1.98
2022-11-17T07:41:00.424Z,1.92
2022-11-17T07:43:26.949Z,1.70
2022-11-17T07:45:53.337Z,1.77
2022-11-17T07:48:19.680Z,1.58
2022-11-17T07:50:46.438Z,1.80
2022-11-17T07:53:13.331Z,1.63
2022-11-17T07:55:39.737Z,1.50
2022-11-17T07:58:06.420Z,1.70
2022-11-17T08:00:33.798Z,1.30
2022-11-17T08:03:01.581Z,1.25
2022-11-17T08:05:30.713Z,1.35
2022-11-17T08:07:57.751Z,1.10
2022-11-17T08:10:26.971Z,1.52
2022-11-17T08:12:53.595Z,1.30
2022-11-17T08:15:21.194Z,1.33
2022-11-17T08:17:51.377Z,1.25
2022-11-17T08:20:17.854Z,1.27
2022-11-17T08:22:44.597Z,1.30
2022-11-17T08:25:10.996Z,1.58
2022-11-17T08:27:37.574Z,1.80
2022-11-17T08:30:04.365Z,1.80
2022-11-17T08:32:31.016Z,1.10
2022-11-17T08:34:57.845Z,1.48
2022-11-17T08:37:24.253Z,1.67
2022-11-17T08:39:50.589Z,1.48
2022-11-17T08:42:17.121Z,1.50
2022-11-17T08:44:43.631Z,1.67
2022-11-17T08:47:10.002Z,1.10
2022-11-17T08:49:36.415Z,3.15
2022-11-17T08:52:03.159Z,1.60
2022-11-17T08:54:29.496Z,1.90
2022-11-17T08:57:00.431Z,1.60
2022-11-17T09:01:56.217Z,1.33
2022-11-17T09:04:22.726Z,1.40
2022-11-17T09:06:49.148Z,1.52
2022-11-17T09:09:15.600Z,1.42
2022-11-17T09:11:42.104Z,1.60
2022-11-17T09:14:08.652Z,1.60
2022-11-17T09:16:35.664Z,1.42
2022-11-17T09:19:02.720Z,1.85
2022-11-17T09:21:30.791Z,1.95
2022-11-17T09:23:57.159Z,1.45
2022-11-17T09:26:23.508Z,2.15
2022-11-17T09:28:49.886Z,1.48
2022-11-17T09:31:18.725Z,1.67
2022-11-17T09:33:45.150Z,2.58
2022-11-17T09:36:12.327Z,1.65
2022-11-17T09:38:39.673Z,1.65
2022-11-17T09:41:17.258Z,1.85
2022-11-17T09:43:50.747Z,1.80
2022-11-17T09:46:20.599Z,2.05
2022-11-17T09:48:51.243Z,1.63
2022-11-17T09:51:19.816Z,1.30
2022-11-17T09:53:50.780Z,2.00
2022-11-17T09:56:17.105Z,1.40
2022-11-17T09:58:50.985Z,1.50
2022-11-17T10:01:21.837Z,1.67
2022-11-17T10:03:49.739Z,1.40
2022-11-17T10:06:19.161Z,1.90
2022-11-17T10:08:45.542Z,1.58
2022-11-17T10:11:31.685Z,1.52
2022-11-17T10:14:16.561Z,1.52
2022-11-17T10:16:44.851Z,1.70
2022-11-17T10:19:19.023Z,1.63
2022-11-17T10:21:47.402Z,1.52
2022-11-17T10:24:32.712Z,1.50
2022-11-17T10:26:59.086Z,1.70
2022-11-17T10:29:25.857Z,2.03
2022-11-17T10:31:52.325Z,1.63
2022-11-17T10:34:40.735Z,2.20
2022-11-17T10:37:14.201Z,1.90
2022-11-17T10:39:41.939Z,1.77
2022-11-17T10:42:22.452Z,2.55
2022-11-17T10:44:51.372Z,1.70
2022-11-17T10:47:28.780Z,1.63
2022-11-17T10:50:14.094Z,1.63
2022-11-17T10:52:40.460Z,2.00
2022-11-17T10:55:27.047Z,2.00
2022-11-17T10:57:55.714Z,2.30
2022-11-17T11:00:23.739Z,1.80
2022-11-17T11:03:02.150Z,1.73
2022-11-17T11:05:28.608Z,1.95
2022-11-17T11:08:08.058Z,1.52
2022-11-17T11:10:35.052Z,1.90
2022-11-17T11:13:15.298Z,1.95
2022-11-17T11:15:41.832Z,1.50
2022-11-17T11:18:15.989Z,1.63
2022-11-17T11:20:48.295Z,1.95
2022-11-17T11:23:20.805Z,1.70
2022-11-17T11:26:10.535Z,1.35
2022-11-17T11:28:40.068Z,1.98
2022-11-17T11:31:17.097Z,1.40
2022-11-17T11:33:58.767Z,1.90
2022-11-17T11:36:30.163Z,1.73
2022-11-17T11:38:59.540Z,1.77
2022-11-17T11:41:37.898Z,2.08
2022-11-17T11:44:19.489Z,1.67
2022-11-17T11:46:51.739Z,1.80
2022-11-17T11:49:18.074Z,2.00
2022-11-17T11:51:46.376Z,1.77
2022-11-17T11:54:16.172Z,1.83
2022-11-17T11:56:44.124Z,1.70
2022-11-17T11:59:15.455Z,1.60
2022-11-17T12:01:48.117Z,1.67
2022-11-17T12:04:23.526Z,1.60
2022-11-17T12:06:54.564Z,1.83
2022-11-17T12:12:00.740Z,1.77
2022-11-17T12:14:31.446Z,1.33
2022-11-17T12:17:03.303Z,2.20
2022-11-17T12:19:50.057Z,1.85
2022-11-17T12:22:22.769Z,2.00
2022-11-17T12:24:49.249Z,1.88
2022-11-17T12:27:34.086Z,1.83
2022-11-17T12:30:04.572Z,1.40
2022-11-17T12:32:49.004Z,1.98
2022-11-17T12:35:25.873Z,1.77
2022-11-17T12:38:10.966Z,1.65
2022-11-17T12:40:44.926Z,1.67
2022-11-17T12:43:14.319Z,1.85
2022-11-17T12:45:55.923Z,1.80
2022-11-17T12:48:33.869Z,1.75
2022-11-17T12:51:09.010Z,2.03
2022-11-17T12:53:41.191Z,1.58
2022-11-17T12:56:20.163Z,1.40
2022-11-17T12:58:58.756Z,1.90
2022-11-17T13:01:28.292Z,1.65
2022-11-17T13:03:59.307Z,1.90
2022-11-17T13:06:35.309Z,1.30
2022-11-17T13:09:04.229Z,1.50
2022-11-17T13:11:30.822Z,1.70
2022-11-17T13:14:06.980Z,1.80
2022-11-17T13:16:35.010Z,1.38
2022-11-17T13:19:01.662Z,1.45
2022-11-17T13:21:29.719Z,1.88
2022-11-17T13:23:56.536Z,1.60
2022-11-17T13:26:23.064Z,2.42
2022-11-17T13:29:01.843Z,1.55
2022-11-17T13:31:28.277Z,1.75
2022-11-17T13:34:15.339Z,1.77
2022-11-17T13:36:55.001Z,1.70
2022-11-17T13:39:25.883Z,3.03
2022-11-17T13:41:54.284Z,1.80
2022-11-17T13:44:22.893Z,1.73
2022-11-17T13:46:49.196Z,1.60
2022-11-17T13:49:34.510Z,2.10
2022-11-17T13:52:01.775Z,1.67
2022-11-17T13:54:28.256Z,1.90
2022-11-17T13:56:56.318Z,2.88
2022-11-17T13:59:30.659Z,1.90
2022-11-17T14:02:15.851Z,2.20
2022-11-17T14:04:42.624Z,1.60
2022-11-17T14:07:10.530Z,1.60
2022-11-17T14:09:36.968Z,1.73
2022-11-17T14:12:10.535Z,1.60
2022-11-17T14:14:40.083Z,1.65
2022-11-17T14:17:11.222Z,1.60
2022-11-17T14:22:27.499Z,1.40
2022-11-17T14:24:55.912Z,1.85
2022-11-17T14:27:31.988Z,2.10
2022-11-17T14:29:58.707Z,1.73
2022-11-17T14:32:25.146Z,1.60
2022-11-17T14:34:51.462Z,1.55
2022-11-17T14:37:17.896Z,1.83
2022-11-17T14:39:44.294Z,1.88
2022-11-17T14:42:11.352Z,1.88
2022-11-17T14:44:37.710Z,1.88
2022-11-17T14:47:04.007Z,2.17
2022-11-17T14:49:30.326Z,2.45
2022-11-17T14:51:59.071Z,2.05
2022-11-17T14:54:25.841Z,1.75
2022-11-17T14:56:52.290Z,1.40
2022-11-17T14:59:18.996Z,1.63
2022-11-17T15:01:45.595Z,1.70
2022-11-17T15:04:35.187Z,3.13
2022-11-17T15:06:59.614Z,1.70
2022-11-17T15:09:27.464Z,1.60
2022-11-17T15:11:54.347Z,1.80
2022-11-17T15:14:20.662Z,1.27
2022-11-17T15:16:47.036Z,1.30
2022-11-17T15:19:13.887Z,1.70
2022-11-17T15:21:40.411Z,1.40
2022-11-17T15:24:06.927Z,1.40
2022-11-17T15:26:34.079Z,1.48
2022-11-17T15:29:01.059Z,1.58
2022-11-17T15:31:27.524Z,1.40
2022-11-17T15:33:53.865Z,1.38
2022-11-17T15:36:20.866Z,1.50
2022-11-17T15:38:47.791Z,1.30
2022-11-17T15:41:15.020Z,1.42
2022-11-17T15:43:42.963Z,1.65
2022-11-17T15:46:13.686Z,1.67
2022-11-17T15:48:43.301Z,1.40
2022-11-17T15:51:14.571Z,1.42
2022-11-17T15:53:41.547Z,1.10
2022-11-17T15:56:08.051Z,1.50
2022-11-17T15:58:35.765Z,1.40
2022-11-17T16:01:08.181Z,1.17
2022-11-17T16:03:34.878Z,1.35
2022-11-17T16:06:01.231Z,1.77
2022-11-17T16:08:27.909Z,1.85
2022-11-17T16:10:54.420Z,1.30
2022-11-17T16:13:20.739Z,1.55
2022-11-17T16:15:50.222Z,1.50
2022-11-17T16:18:17.177Z,1.30
2022-11-17T16:20:43.843Z,1.50
2022-11-17T16:23:10.220Z,1.40
2022-11-17T16:25:40.790Z,1.80
2022-11-17T16:28:07.449Z,1.60
2022-11-17T16:30:35.585Z,1.40
2022-11-17T16:33:02.725Z,1.60
2022-11-17T16:35:29.118Z,1.80
2022-11-17T16:37:55.558Z,1.70
2022-11-17T16:40:22.810Z,1.58
2022-11-17T16:42:49.316Z,2.15
2022-11-17T16:45:15.702Z,1.50
2022-11-17T16:47:42.004Z,1.67
2022-11-17T16:50:08.884Z,1.50
2022-11-17T16:52:35.468Z,1.80
2022-11-17T16:55:04.822Z,1.20
2022-11-17T16:57:32.136Z,1.77
2022-11-17T16:59:58.600Z,1.52
2022-11-17T17:02:26.044Z,1.30
2022-11-17T17:04:52.560Z,1.63
2022-11-17T17:07:18.981Z,1.60
2022-11-17T17:09:45.315Z,1.73
2022-11-17T17:12:11.671Z,1.35
2022-11-17T17:14:38.026Z,1.48
2022-11-17T17:17:04.405Z,1.80
2022-11-17T17:19:30.713Z,1.65
2022-11-17T17:21:58.194Z,1.52
2022-11-17T17:24:24.716Z,1.67
2022-11-17T17:26:51.111Z,1.58
2022-11-17T17:29:17.963Z,1.42
2022-11-17T17:31:44.665Z,2.05
2022-11-17T17:34:12.404Z,1.70
2022-11-17T17:36:38.855Z,1.73
2022-11-17T17:39:05.779Z,1.63
2022-11-17T17:41:38.398Z,1.80
2022-11-17T17:44:06.352Z,1.35
2022-11-17T17:46:37.090Z,1.55
2022-11-17T17:49:03.445Z,1.83
2022-11-17T17:51:30.850Z,2.20
2022-11-17T17:53:58.592Z,1.60
2022-11-17T17:56:25.279Z,1.52
2022-11-17T17:58:53.895Z,1.50
2022-11-17T18:01:22.196Z,2.03
2022-11-17T18:03:49.399Z,1.92
2022-11-17T18:06:17.027Z,1.65
2022-11-17T18:08:43.403Z,1.50
2022-11-17T18:11:12.185Z,1.88
2022-11-17T18:13:39.486Z,2.05
2022-11-17T18:16:07.019Z,1.45
2022-11-17T18:18:33.867Z,1.75
2022-11-17T18:21:02.075Z,1.60
2022-11-17T18:23:29.512Z,1.60
2022-11-17T18:25:56.556Z,1.50
2022-11-17T18:28:23.432Z,1.35
2022-11-17T18:30:49.835Z,1.60
2022-11-17T18:33:16.330Z,1.80
2022-11-17T18:35:42.675Z,1.70
2022-11-17T18:38:09.058Z,1.70
2022-11-17T18:40:36.194Z,1.70
2022-11-17T18:43:02.508Z,1.92
2022-11-17T18:45:28.902Z,2.05
2022-11-17T18:47:55.409Z,1.70
2022-11-17T18:50:22.440Z,1.58
2022-11-17T18:52:48.870Z,1.92
2022-11-17T18:55:15.256Z,2.00
2022-11-17T18:57:44.959Z,1.80
2022-11-17T19:00:11.999Z,2.10
2022-11-17T19:02:38.387Z,2.10
2022-11-17T19:05:04.967Z,2.17
2022-11-17T19:07:31.771Z,1.63
2022-11-17T19:09:58.227Z,2.40
2022-11-17T19:12:24.669Z,2.03
2022-11-17T19:14:51.079Z,1.63
2022-11-17T19:17:17.506Z,1.63
2022-11-17T19:19:43.899Z,2.05
2022-11-17T19:22:10.387Z,2.25
2022-11-17T19:24:38.764Z,1.80
2022-11-17T19:27:05.243Z,2.00
2022-11-17T19:29:31.613Z,2.63
2022-11-17T19:31:58.387Z,2.25
2022-11-17T19:34:24.932Z,1.70
2022-11-17T19:36:51.348Z,1.60
2022-11-17T19:39:17.952Z,1.70
2022-11-17T19:41:45.369Z,2.10
2022-11-17T19:44:11.904Z,1.83
2022-11-17T19:46:38.955Z,2.28
2022-11-17T19:49:05.985Z,2.33
2022-11-17T19:51:33.467Z,2.00
2022-11-17T19:54:04.338Z,2.30
2022-11-17T19:56:31.182Z,2.25
2022-11-17T19:58:57.872Z,2.60
2022-11-17T20:01:25.852Z,1.88
2022-11-17T20:03:52.698Z,2.13
2022-11-17T20:06:20.148Z,1.85
2022-11-17T20:08:46.934Z,2.28
2022-11-17T20:11:14.574Z,2.33
2022-11-17T20:13:41.501Z,2.03
2022-11-17T20:16:12.424Z,2.13
2022-11-17T20:21:05.761Z,1.70
2022-11-17T20:23:33.392Z,2.10
2022-11-17T20:26:02.611Z,2.30
2022-11-17T20:28:31.091Z,2.03
2022-11-17T20:30:57.504Z,2.00
2022-11-17T20:33:23.825Z,1.83
2022-11-17T20:35:50.483Z,2.08
2022-11-17T20:38:16.908Z,2.15
2022-11-17T20:40:43.250Z,2.20
2022-11-17T20:43:09.610Z,2.65
2022-11-17T20:45:36.118Z,2.38
2022-11-17T20:48:02.552Z,2.45
2022-11-17T20:50:28.975Z,2.00
2022-11-17T20:52:55.295Z,2.17
2022-11-17T20:55:21.699Z,2.30
2022-11-17T20:57:48.046Z,2.38
2022-11-17T21:00:14.855Z,2.40
2022-11-17T21:02:41.292Z,2.70
2022-11-17T21:05:07.763Z,2.65
2022-11-17T21:07:34.706Z,2.83
2022-11-17T21:10:01.446Z,3.03
2022-11-17T21:12:28.556Z,2.38
2022-11-17T21:14:54.876Z,2.65
2022-11-17T21:17:40.130Z,2.30
2022-11-17T21:20:06.786Z,2.47
2022-11-17T21:22:33.256Z,3.15
2022-11-17T21:24:59.616Z,2.75
2022-11-17T21:27:26.001Z,2.83
2022-11-17T21:29:52.727Z,2.65
2022-11-17T21:32:19.044Z,3.47
2022-11-17T21:34:49.675Z,3.53
2022-11-17T21:37:16.295Z,2.60
2022-11-17T21:39:42.779Z,2.38
2022-11-17T21:42:09.417Z,2.97
2022-11-17T21:44:35.912Z,2.63
2022-11-17T21:47:02.208Z,3.00
2022-11-17T21:49:28.828Z,2.63
2022-11-17T21:51:55.288Z,3.00
2022-11-17T21:54:21.723Z,2.30
2022-11-17T21:56:48.218Z,2.65
2022-11-17T21:59:16.485Z,2.65
2022-11-17T22:01:43.332Z,2.65
2022-11-17T22:04:10.999Z,2.85
2022-11-17T22:06:38.097Z,2.80
2022-11-17T22:09:04.782Z,3.03
2022-11-17T22:11:38.202Z,2.60
2022-11-17T22:14:06.200Z,2.60
2022-11-17T22:16:32.855Z,2.78
2022-11-17T22:18:59.251Z,2.30
2022-11-17T22:21:26.023Z,2.60
2022-11-17T22:23:52.508Z,2.30
2022-11-17T22:26:18.896Z,3.00
2022-11-17T22:28:45.248Z,2.55
2022-11-17T22:31:12.535Z,2.72
2022-11-17T22:33:40.040Z,3.10
2022-11-17T22:36:06.695Z,2.65
2022-11-17T22:38:33.067Z,3.00
2022-11-17T22:41:00.443Z,2.95
2022-11-17T22:43:26.806Z,3.05
2022-11-17T22:45:53.154Z,3.20
2022-11-17T22:48:19.497Z,3.05
2022-11-17T22:50:45.897Z,3.10
2022-11-17T22:53:12.203Z,3.05
2022-11-17T22:55:38.897Z,3.28
2022-11-17T22:58:05.295Z,2.88
2022-11-17T23:00:32.391Z,2.78
2022-11-17T23:02:58.828Z,2.88
2022-11-17T23:05:25.220Z,3.17
2022-11-17T23:07:51.520Z,2.60
2022-11-17T23:10:17.920Z,3.00
2022-11-17T23:12:44.215Z,3.10
2022-11-17T23:15:10.571Z,3.20
2022-11-17T23:17:37.283Z,3.10
2022-11-17T23:20:04.398Z,3.10
2022-11-17T23:22:30.963Z,2.80
2022-11-17T23:24:57.314Z,3.30
2022-11-17T23:27:23.623Z,3.28
2022-11-17T23:29:49.913Z,2.80
2022-11-17T23:32:16.359Z,2.60
2022-11-17T23:34:42.689Z,3.08
2022-11-17T23:37:09.076Z,2.92
2022-11-17T23:39:35.450Z,2.85
2022-11-17T23:42:01.848Z,2.80
2022-11-17T23:44:28.640Z,2.90
2022-11-17T23:46:55.261Z,3.35
2022-11-17T23:49:21.610Z,3.47
2022-11-17T23:51:48.071Z,3.65
2022-11-17T23:54:14.446Z,3.45
2022-11-17T23:56:40.794Z,2.80
2022-11-17T23:59:08.121Z,3.15
